McClellanville, SC (29458)

1:27 AM EST on February 09, 2016 (GMT -0500)
Georgetown County | | Change Station
CLOSE
Current Station
Airport
Location: Georgetown,
Elevation: 39 ft
Nearby Weather Stations

Elev 39 ft 33.31 °N, 79.32 °W | Updated 12 minutes ago

Clear
Clear
41 °F
Feels Like 36 °F
N
7
Wind Variable Wind from West

Today
High -- | Low -- °F
--% Chance of Precip.
Yesterday
High -- | Low -- °F
Precip. -- in
Pressure 29.71 in
Visibility 10.0 miles
Clouds Clear
Windchill 36 °F
Dew Point 37 °F
Humidity 87%
Rainfall 0.00 in
Snow Depth Not available.
7:07 AM 5:57 PM
New Moon, 1% visible
METAR KGGE 090615Z AUTO 26006KT 10SM CLR 05/03 A2971 RMK AO2
Pressure 29.71 in
Visibility 10.0 miles
Clouds Clear
Windchill 36 °F
Dew Point 37 °F
Humidity 87%
Rainfall 0.00 in
Snow Depth Not available.
7:07 AM 5:57 PM
New Moon, 1% visible
METAR KGGE 090615Z AUTO 26006KT 10SM CLR 05/03 A2971 RMK AO2

10-Day Weather Forecast

Almanac

Astronomy

Feb. 09, 2016 Rise Set
Actual Time
Civil Twilight
Nautical Twilight
Astronomical Twilight
Moon
Length of Visible Light
Length of Day
Tomorrow will be .
, % of the Moon is Illuminated

Today's Extremes

State Highs State Lows

Community

WunderPhotos

Upload Photos

1,891,571 photos uploaded!

WunderBlog® & News

Nearby

Air Quality

  Air Quality AQ Index Pollutant
Not available.

Snow Depth

Station Depth Elevation

Earthquake Activity

City Distance Mag. Time & Date
Minimum magnitude displayed is 2.5.

Coastal Water Temperatures

Place Temperature

Stations

Nearby Weather Stations

Station Location Temp. Windchill Dew Point Humidity Wind Precip. Elev Updated Type
                   

Watches & Warnings

There are currently no watches in effect.